sensor_id;sensor_type;location;lat;lon;timestamp;temperature;humidity
17984;DHT22;9117;52.420;20.728;2023-03-23T00:01:32;9.40;1.00
17984;DHT22;9117;52.420;20.728;2023-03-23T00:04:03;9.40;1.00
17984;DHT22;9117;52.420;20.728;2023-03-23T00:06:31;9.40;1.00
17984;DHT22;9117;52.420;20.728;2023-03-23T00:08:58;9.40;1.00
17984;DHT22;9117;52.420;20.728;2023-03-23T00:11:31;9.40;1.00
17984;DHT22;9117;52.420;20.728;2023-03-23T00:13:59;9.40;1.00
17984;DHT22;9117;52.420;20.728;2023-03-23T00:16:29;10.10;1.00
17984;DHT22;9117;52.420;20.728;2023-03-23T00:19:00;9.40;1.00
17984;DHT22;9117;52.420;20.728;2023-03-23T00:21:29;9.40;1.00
17984;DHT22;9117;52.420;20.728;2023-03-23T00:24:02;9.40;1.00
17984;DHT22;9117;52.420;20.728;2023-03-23T00:26:30;9.40;1.00
17984;DHT22;9117;52.420;20.728;2023-03-23T00:29:00;9.40;1.00
17984;DHT22;9117;52.420;20.728;2023-03-23T00:31:28;9.40;1.00
17984;DHT22;9117;52.420;20.728;2023-03-23T00:33:57;9.40;1.00
17984;DHT22;9117;52.420;20.728;2023-03-23T00:36:26;9.40;1.00
17984;DHT22;9117;52.420;20.728;2023-03-23T00:38:54;9.40;1.00
17984;DHT22;9117;52.420;20.728;2023-03-23T00:41:26;9.40;1.00
17984;DHT22;9117;52.420;20.728;2023-03-23T00:43:56;9.30;1.00
17984;DHT22;9117;52.420;20.728;2023-03-23T00:46:23;9.30;1.00
17984;DHT22;9117;52.420;20.728;2023-03-23T00:48:51;9.30;1.00
17984;DHT22;9117;52.420;20.728;2023-03-23T00:51:18;9.30;1.00
17984;DHT22;9117;52.420;20.728;2023-03-23T00:53:46;9.30;1.00
17984;DHT22;9117;52.420;20.728;2023-03-23T00:56:14;9.30;1.00
17984;DHT22;9117;52.420;20.728;2023-03-23T00:58:41;9.30;1.00
17984;DHT22;9117;52.420;20.728;2023-03-23T01:01:10;9.20;1.00
17984;DHT22;9117;52.420;20.728;2023-03-23T01:03:37;9.30;1.00
17984;DHT22;9117;52.420;20.728;2023-03-23T01:06:06;9.20;1.00
17984;DHT22;9117;52.420;20.728;2023-03-23T01:08:34;9.10;1.00
17984;DHT22;9117;52.420;20.728;2023-03-23T01:11:06;9.10;1.00
17984;DHT22;9117;52.420;20.728;2023-03-23T01:13:33;9.10;1.00
17984;DHT22;9117;52.420;20.728;2023-03-23T01:16:02;9.10;1.00
17984;DHT22;9117;52.420;20.728;2023-03-23T01:18:31;8.90;1.00
17984;DHT22;9117;52.420;20.728;2023-03-23T01:21:03;8.90;1.00
17984;DHT22;9117;52.420;20.728;2023-03-23T01:23:32;9.00;1.00
17984;DHT22;9117;52.420;20.728;2023-03-23T01:26:03;8.90;1.00
17984;DHT22;9117;52.420;20.728;2023-03-23T01:28:30;9.10;1.00
17984;DHT22;9117;52.420;20.728;2023-03-23T01:31:00;9.10;1.00
17984;DHT22;9117;52.420;20.728;2023-03-23T01:33:27;9.10;1.00
17984;DHT22;9117;52.420;20.728;2023-03-23T01:35:56;9.10;1.00
17984;DHT22;9117;52.420;20.728;2023-03-23T01:38:23;9.20;1.00
17984;DHT22;9117;52.420;20.728;2023-03-23T01:40:50;9.20;1.00
17984;DHT22;9117;52.420;20.728;2023-03-23T01:43:17;9.20;1.00
17984;DHT22;9117;52.420;20.728;2023-03-23T01:45:45;9.20;1.00
17984;DHT22;9117;52.420;20.728;2023-03-23T01:48:17;9.20;1.00
17984;DHT22;9117;52.420;20.728;2023-03-23T01:50:51;9.20;1.00
17984;DHT22;9117;52.420;20.728;2023-03-23T01:53:22;9.20;1.00
17984;DHT22;9117;52.420;20.728;2023-03-23T01:55:52;9.20;1.00
17984;DHT22;9117;52.420;20.728;2023-03-23T01:58:24;9.30;1.00
17984;DHT22;9117;52.420;20.728;2023-03-23T02:00:53;9.30;1.00
17984;DHT22;9117;52.420;20.728;2023-03-23T02:03:21;9.30;1.00
17984;DHT22;9117;52.420;20.728;2023-03-23T02:05:50;9.30;1.00
17984;DHT22;9117;52.420;20.728;2023-03-23T02:08:18;9.30;1.00
17984;DHT22;9117;52.420;20.728;2023-03-23T02:10:46;9.20;1.00
17984;DHT22;9117;52.420;20.728;2023-03-23T02:13:14;9.40;1.00
17984;DHT22;9117;52.420;20.728;2023-03-23T02:15:53;9.40;1.00
17984;DHT22;9117;52.420;20.728;2023-03-23T02:18:31;9.50;1.00
17984;DHT22;9117;52.420;20.728;2023-03-23T02:27:10;9.50;1.00
17984;DHT22;9117;52.420;20.728;2023-03-23T02:29:56;9.50;1.00
17984;DHT22;9117;52.420;20.728;2023-03-23T02:32:47;9.50;1.00
17984;DHT22;9117;52.420;20.728;2023-03-23T02:35:24;9.50;1.00
17984;DHT22;9117;52.420;20.728;2023-03-23T02:37:58;9.50;1.00
17984;DHT22;9117;52.420;20.728;2023-03-23T02:40:30;9.50;1.00
17984;DHT22;9117;52.420;20.728;2023-03-23T02:43:00;9.50;1.00
17984;DHT22;9117;52.420;20.728;2023-03-23T02:45:29;9.50;1.00
17984;DHT22;9117;52.420;20.728;2023-03-23T02:47:59;9.40;1.00
17984;DHT22;9117;52.420;20.728;2023-03-23T02:50:29;9.40;1.00
17984;DHT22;9117;52.420;20.728;2023-03-23T02:52:57;9.40;1.00
17984;DHT22;9117;52.420;20.728;2023-03-23T02:55:26;9.40;1.00
17984;DHT22;9117;52.420;20.728;2023-03-23T02:57:56;9.40;1.00
17984;DHT22;9117;52.420;20.728;2023-03-23T03:00:23;9.40;1.00
17984;DHT22;9117;52.420;20.728;2023-03-23T03:02:52;9.40;1.00
17984;DHT22;9117;52.420;20.728;2023-03-23T03:05:33;9.40;1.00
17984;DHT22;9117;52.420;20.728;2023-03-23T03:08:09;9.30;1.00
17984;DHT22;9117;52.420;20.728;2023-03-23T03:10:43;9.30;1.00
17984;DHT22;9117;52.420;20.728;2023-03-23T03:16:07;9.30;1.00
17984;DHT22;9117;52.420;20.728;2023-03-23T03:18:42;9.30;1.00
17984;DHT22;9117;52.420;20.728;2023-03-23T03:21:14;9.20;1.00
17984;DHT22;9117;52.420;20.728;2023-03-23T03:23:43;9.20;1.00
17984;DHT22;9117;52.420;20.728;2023-03-23T03:26:12;9.20;1.00
17984;DHT22;9117;52.420;20.728;2023-03-23T03:28:44;9.20;1.00
17984;DHT22;9117;52.420;20.728;2023-03-23T03:31:15;9.10;1.00
17984;DHT22;9117;52.420;20.728;2023-03-23T03:33:44;9.10;1.00
17984;DHT22;9117;52.420;20.728;2023-03-23T03:36:18;9.10;1.00
17984;DHT22;9117;52.420;20.728;2023-03-23T03:38:47;9.10;1.00
17984;DHT22;9117;52.420;20.728;2023-03-23T03:41:16;9.00;1.00
17984;DHT22;9117;52.420;20.728;2023-03-23T03:43:43;9.00;1.00
17984;DHT22;9117;52.420;20.728;2023-03-23T03:46:11;9.00;1.00
17984;DHT22;9117;52.420;20.728;2023-03-23T03:48:38;9.00;1.00
17984;DHT22;9117;52.420;20.728;2023-03-23T03:51:05;9.00;1.00
17984;DHT22;9117;52.420;20.728;2023-03-23T03:53:33;8.90;1.00
17984;DHT22;9117;52.420;20.728;2023-03-23T03:56:01;8.90;1.00
17984;DHT22;9117;52.420;20.728;2023-03-23T03:58:28;9.00;1.00
17984;DHT22;9117;52.420;20.728;2023-03-23T04:00:58;8.90;1.00
17984;DHT22;9117;52.420;20.728;2023-03-23T04:03:25;8.90;1.00
17984;DHT22;9117;52.420;20.728;2023-03-23T04:05:53;8.80;1.00
17984;DHT22;9117;52.420;20.728;2023-03-23T04:08:21;8.90;1.00
17984;DHT22;9117;52.420;20.728;2023-03-23T04:10:50;8.80;1.00
17984;DHT22;9117;52.420;20.728;2023-03-23T04:13:18;8.80;1.00
17984;DHT22;9117;52.420;20.728;2023-03-23T04:15:45;8.80;1.00
17984;DHT22;9117;52.420;20.728;2023-03-23T04:18:14;8.80;1.00
17984;DHT22;9117;52.420;20.728;2023-03-23T04:20:43;8.80;1.00
17984;DHT22;9117;52.420;20.728;2023-03-23T04:23:13;8.70;1.00
17984;DHT22;9117;52.420;20.728;2023-03-23T04:25:40;8.70;1.00
17984;DHT22;9117;52.420;20.728;2023-03-23T04:28:10;8.70;1.00
17984;DHT22;9117;52.420;20.728;2023-03-23T04:30:37;8.80;1.00
17984;DHT22;9117;52.420;20.728;2023-03-23T04:33:04;8.70;1.00
17984;DHT22;9117;52.420;20.728;2023-03-23T04:35:31;8.70;1.00
17984;DHT22;9117;52.420;20.728;2023-03-23T04:37:59;8.70;1.00
17984;DHT22;9117;52.420;20.728;2023-03-23T04:40:26;8.70;1.00
17984;DHT22;9117;52.420;20.728;2023-03-23T04:42:53;8.70;1.00
17984;DHT22;9117;52.420;20.728;2023-03-23T04:45:24;8.70;1.00
17984;DHT22;9117;52.420;20.728;2023-03-23T04:47:52;8.70;1.00
17984;DHT22;9117;52.420;20.728;2023-03-23T04:50:25;8.70;1.00
17984;DHT22;9117;52.420;20.728;2023-03-23T04:52:53;8.60;1.00
17984;DHT22;9117;52.420;20.728;2023-03-23T04:55:24;8.60;1.00
17984;DHT22;9117;52.420;20.728;2023-03-23T04:58:03;8.60;1.00
17984;DHT22;9117;52.420;20.728;2023-03-23T05:00:32;8.70;1.00
17984;DHT22;9117;52.420;20.728;2023-03-23T05:02:59;8.60;1.00
17984;DHT22;9117;52.420;20.728;2023-03-23T05:05:27;8.60;1.00
17984;DHT22;9117;52.420;20.728;2023-03-23T05:07:56;8.60;1.00
17984;DHT22;9117;52.420;20.728;2023-03-23T05:10:24;8.70;1.00
17984;DHT22;9117;52.420;20.728;2023-03-23T05:12:53;8.70;1.00
17984;DHT22;9117;52.420;20.728;2023-03-23T05:15:20;8.70;1.00
17984;DHT22;9117;52.420;20.728;2023-03-23T05:17:51;8.70;1.00
17984;DHT22;9117;52.420;20.728;2023-03-23T05:20:18;8.70;1.00
17984;DHT22;9117;52.420;20.728;2023-03-23T05:22:46;8.70;1.00
17984;DHT22;9117;52.420;20.728;2023-03-23T05:25:15;8.70;1.00
17984;DHT22;9117;52.420;20.728;2023-03-23T05:27:44;8.80;1.00
17984;DHT22;9117;52.420;20.728;2023-03-23T05:30:15;8.80;1.00
17984;DHT22;9117;52.420;20.728;2023-03-23T05:32:42;8.80;1.00
17984;DHT22;9117;52.420;20.728;2023-03-23T05:35:12;8.90;1.00
17984;DHT22;9117;52.420;20.728;2023-03-23T05:37:39;8.90;1.00
17984;DHT22;9117;52.420;20.728;2023-03-23T05:40:07;8.90;1.00
17984;DHT22;9117;52.420;20.728;2023-03-23T05:42:40;8.90;1.00
17984;DHT22;9117;52.420;20.728;2023-03-23T05:45:11;9.00;1.00
17984;DHT22;9117;52.420;20.728;2023-03-23T05:47:39;9.00;1.00
17984;DHT22;9117;52.420;20.728;2023-03-23T05:50:08;9.00;1.00
17984;DHT22;9117;52.420;20.728;2023-03-23T05:52:38;9.00;1.00
17984;DHT22;9117;52.420;20.728;2023-03-23T05:55:07;9.10;1.00
17984;DHT22;9117;52.420;20.728;2023-03-23T05:57:34;9.10;1.00
17984;DHT22;9117;52.420;20.728;2023-03-23T06:00:02;9.10;1.00
17984;DHT22;9117;52.420;20.728;2023-03-23T06:02:39;9.20;1.00
17984;DHT22;9117;52.420;20.728;2023-03-23T06:05:09;9.20;1.00
17984;DHT22;9117;52.420;20.728;2023-03-23T06:07:38;9.20;1.00
17984;DHT22;9117;52.420;20.728;2023-03-23T06:10:07;9.30;1.00
17984;DHT22;9117;52.420;20.728;2023-03-23T06:12:34;9.30;1.00
17984;DHT22;9117;52.420;20.728;2023-03-23T06:15:01;9.30;1.00
17984;DHT22;9117;52.420;20.728;2023-03-23T06:17:29;9.40;1.00
17984;DHT22;9117;52.420;20.728;2023-03-23T06:19:56;9.40;1.00
17984;DHT22;9117;52.420;20.728;2023-03-23T06:22:23;9.50;1.00
17984;DHT22;9117;52.420;20.728;2023-03-23T06:24:52;9.50;1.00
17984;DHT22;9117;52.420;20.728;2023-03-23T06:27:19;9.50;1.00
17984;DHT22;9117;52.420;20.728;2023-03-23T06:29:46;9.60;1.00
17984;DHT22;9117;52.420;20.728;2023-03-23T06:32:14;9.70;1.00
17984;DHT22;9117;52.420;20.728;2023-03-23T06:34:41;9.70;1.00
17984;DHT22;9117;52.420;20.728;2023-03-23T06:37:10;9.70;1.00
17984;DHT22;9117;52.420;20.728;2023-03-23T06:39:38;9.80;1.00
17984;DHT22;9117;52.420;20.728;2023-03-23T06:42:09;9.80;1.00
17984;DHT22;9117;52.420;20.728;2023-03-23T06:44:36;9.90;1.00
17984;DHT22;9117;52.420;20.728;2023-03-23T06:47:04;10.00;1.00
17984;DHT22;9117;52.420;20.728;2023-03-23T06:49:31;10.00;1.00
17984;DHT22;9117;52.420;20.728;2023-03-23T06:51:58;10.10;1.00
17984;DHT22;9117;52.420;20.728;2023-03-23T06:54:27;10.20;1.00
17984;DHT22;9117;52.420;20.728;2023-03-23T06:56:54;10.20;1.00
17984;DHT22;9117;52.420;20.728;2023-03-23T06:59:23;10.40;1.00
17984;DHT22;9117;52.420;20.728;2023-03-23T07:01:50;10.40;1.00
17984;DHT22;9117;52.420;20.728;2023-03-23T07:04:17;10.50;1.00
17984;DHT22;9117;52.420;20.728;2023-03-23T07:06:44;10.60;1.00
17984;DHT22;9117;52.420;20.728;2023-03-23T07:09:12;10.80;1.00
17984;DHT22;9117;52.420;20.728;2023-03-23T07:11:39;10.80;1.00
17984;DHT22;9117;52.420;20.728;2023-03-23T07:14:07;10.90;1.00
17984;DHT22;9117;52.420;20.728;2023-03-23T07:16:35;11.00;1.00
17984;DHT22;9117;52.420;20.728;2023-03-23T07:19:03;11.10;1.00
17984;DHT22;9117;52.420;20.728;2023-03-23T07:21:30;11.10;1.00
17984;DHT22;9117;52.420;20.728;2023-03-23T07:23:57;11.20;1.00
17984;DHT22;9117;52.420;20.728;2023-03-23T07:26:24;11.30;1.00
17984;DHT22;9117;52.420;20.728;2023-03-23T07:28:51;11.40;1.00
17984;DHT22;9117;52.420;20.728;2023-03-23T07:31:18;11.50;1.00
17984;DHT22;9117;52.420;20.728;2023-03-23T07:33:46;11.60;1.00
17984;DHT22;9117;52.420;20.728;2023-03-23T07:36:13;11.80;1.00
17984;DHT22;9117;52.420;20.728;2023-03-23T07:38:41;12.00;1.00
17984;DHT22;9117;52.420;20.728;2023-03-23T07:41:09;12.20;1.00
17984;DHT22;9117;52.420;20.728;2023-03-23T07:43:36;12.40;1.00
17984;DHT22;9117;52.420;20.728;2023-03-23T07:46:03;12.70;1.00
17984;DHT22;9117;52.420;20.728;2023-03-23T07:48:31;12.90;1.00
17984;DHT22;9117;52.420;20.728;2023-03-23T07:51:00;12.90;1.00
17984;DHT22;9117;52.420;20.728;2023-03-23T07:53:27;13.00;1.00
17984;DHT22;9117;52.420;20.728;2023-03-23T07:55:54;13.00;1.00
17984;DHT22;9117;52.420;20.728;2023-03-23T07:58:21;13.10;1.00
17984;DHT22;9117;52.420;20.728;2023-03-23T08:00:48;13.20;1.00
17984;DHT22;9117;52.420;20.728;2023-03-23T08:03:16;13.30;1.00
17984;DHT22;9117;52.420;20.728;2023-03-23T08:05:44;13.40;1.00
17984;DHT22;9117;52.420;20.728;2023-03-23T08:08:12;13.50;1.00
17984;DHT22;9117;52.420;20.728;2023-03-23T08:10:40;13.50;1.00
17984;DHT22;9117;52.420;20.728;2023-03-23T08:13:07;13.50;1.00
17984;DHT22;9117;52.420;20.728;2023-03-23T08:15:35;13.50;8.60
17984;DHT22;9117;52.420;20.728;2023-03-23T08:18:04;13.60;1.00
17984;DHT22;9117;52.420;20.728;2023-03-23T08:20:31;13.60;3.90
17984;DHT22;9117;52.420;20.728;2023-03-23T08:22:59;13.70;6.10
17984;DHT22;9117;52.420;20.728;2023-03-23T08:25:30;13.80;4.00
17984;DHT22;9117;52.420;20.728;2023-03-23T08:27:58;13.90;1.50
17984;DHT22;9117;52.420;20.728;2023-03-23T08:30:27;14.00;12.50
17984;DHT22;9117;52.420;20.728;2023-03-23T08:32:56;14.10;14.20
17984;DHT22;9117;52.420;20.728;2023-03-23T08:35:23;14.20;16.70
17984;DHT22;9117;52.420;20.728;2023-03-23T08:37:51;14.20;12.20
17984;DHT22;9117;52.420;20.728;2023-03-23T08:40:22;14.10;9.50
17984;DHT22;9117;52.420;20.728;2023-03-23T08:42:51;14.10;18.20
17984;DHT22;9117;52.420;20.728;2023-03-23T08:45:23;14.10;13.60
17984;DHT22;9117;52.420;20.728;2023-03-23T08:47:50;14.00;20.60
17984;DHT22;9117;52.420;20.728;2023-03-23T08:50:22;14.00;9.20
17984;DHT22;9117;52.420;20.728;2023-03-23T08:52:50;13.90;19.00
17984;DHT22;9117;52.420;20.728;2023-03-23T08:55:18;13.90;11.30
17984;DHT22;9117;52.420;20.728;2023-03-23T08:57:46;13.90;14.50
17984;DHT22;9117;52.420;20.728;2023-03-23T09:00:17;14.00;11.80
17984;DHT22;9117;52.420;20.728;2023-03-23T09:02:46;13.90;17.60
17984;DHT22;9117;52.420;20.728;2023-03-23T09:05:14;14.00;18.00
17984;DHT22;9117;52.420;20.728;2023-03-23T09:07:44;14.00;18.00
17984;DHT22;9117;52.420;20.728;2023-03-23T09:10:12;14.10;17.30
17984;DHT22;9117;52.420;20.728;2023-03-23T09:12:40;14.10;14.10
17984;DHT22;9117;52.420;20.728;2023-03-23T09:15:09;14.20;11.90
17984;DHT22;9117;52.420;20.728;2023-03-23T09:17:42;14.10;16.50
17984;DHT22;9117;52.420;20.728;2023-03-23T09:20:11;14.20;13.10
17984;DHT22;9117;52.420;20.728;2023-03-23T09:22:39;14.20;17.00
17984;DHT22;9117;52.420;20.728;2023-03-23T09:25:08;14.30;25.70
17984;DHT22;9117;52.420;20.728;2023-03-23T09:27:36;14.30;22.30
17984;DHT22;9117;52.420;20.728;2023-03-23T09:30:10;14.30;25.70
17984;DHT22;9117;52.420;20.728;2023-03-23T09:32:39;14.30;19.90
17984;DHT22;9117;52.420;20.728;2023-03-23T09:35:08;14.30;11.40
17984;DHT22;9117;52.420;20.728;2023-03-23T09:37:37;14.50;20.00
17984;DHT22;9117;52.420;20.728;2023-03-23T09:40:06;14.60;19.60
17984;DHT22;9117;52.420;20.728;2023-03-23T09:42:45;14.70;31.20
17984;DHT22;9117;52.420;20.728;2023-03-23T09:45:20;14.90;35.10
17984;DHT22;9117;52.420;20.728;2023-03-23T09:48:09;14.90;36.80
17984;DHT22;9117;52.420;20.728;2023-03-23T09:50:43;15.10;35.60
17984;DHT22;9117;52.420;20.728;2023-03-23T09:53:16;15.30;32.60
17984;DHT22;9117;52.420;20.728;2023-03-23T09:55:45;15.40;28.30
17984;DHT22;9117;52.420;20.728;2023-03-23T09:58:18;15.60;28.20
17984;DHT22;9117;52.420;20.728;2023-03-23T10:00:54;15.90;31.60
17984;DHT22;9117;52.420;20.728;2023-03-23T10:03:26;16.00;29.00
17984;DHT22;9117;52.420;20.728;2023-03-23T10:05:54;15.90;24.90
17984;DHT22;9117;52.420;20.728;2023-03-23T10:08:24;15.90;27.90
17984;DHT22;9117;52.420;20.728;2023-03-23T10:10:59;16.20;23.90
17984;DHT22;9117;52.420;20.728;2023-03-23T10:13:48;16.30;25.20
17984;DHT22;9117;52.420;20.728;2023-03-23T10:16:21;16.80;28.50
17984;DHT22;9117;52.420;20.728;2023-03-23T10:18:55;16.90;32.20
17984;DHT22;9117;52.420;20.728;2023-03-23T10:21:25;16.80;38.80
17984;DHT22;9117;52.420;20.728;2023-03-23T10:23:58;17.00;43.00
17984;DHT22;9117;52.420;20.728;2023-03-23T10:26:37;17.00;44.50
17984;DHT22;9117;52.420;20.728;2023-03-23T10:29:15;17.20;43.80
17984;DHT22;9117;52.420;20.728;2023-03-23T10:31:47;17.40;44.00
17984;DHT22;9117;52.420;20.728;2023-03-23T10:34:24;17.40;51.10
17984;DHT22;9117;52.420;20.728;2023-03-23T10:36:57;17.50;51.30
17984;DHT22;9117;52.420;20.728;2023-03-23T10:39:31;17.50;60.70
17984;DHT22;9117;52.420;20.728;2023-03-23T10:42:00;17.70;58.20
17984;DHT22;9117;52.420;20.728;2023-03-23T10:44:33;17.50;47.80
17984;DHT22;9117;52.420;20.728;2023-03-23T10:47:02;17.30;60.10
17984;DHT22;9117;52.420;20.728;2023-03-23T10:49:36;17.30;60.50
17984;DHT22;9117;52.420;20.728;2023-03-23T10:52:12;17.50;65.40
17984;DHT22;9117;52.420;20.728;2023-03-23T10:54:49;17.60;63.10
17984;DHT22;9117;52.420;20.728;2023-03-23T10:57:23;17.70;65.70
17984;DHT22;9117;52.420;20.728;2023-03-23T10:59:58;18.00;66.30
17984;DHT22;9117;52.420;20.728;2023-03-23T11:02:27;18.10;63.60
17984;DHT22;9117;52.420;20.728;2023-03-23T11:05:00;18.40;65.60
17984;DHT22;9117;52.420;20.728;2023-03-23T11:07:32;18.20;64.00
17984;DHT22;9117;52.420;20.728;2023-03-23T11:10:11;18.00;60.50
17984;DHT22;9117;52.420;20.728;2023-03-23T11:12:44;18.20;64.10
17984;DHT22;9117;52.420;20.728;2023-03-23T11:15:24;18.00;61.20
17984;DHT22;9117;52.420;20.728;2023-03-23T11:17:56;17.80;64.40
17984;DHT22;9117;52.420;20.728;2023-03-23T11:20:26;17.70;67.90
17984;DHT22;9117;52.420;20.728;2023-03-23T11:22:54;17.60;67.60
17984;DHT22;9117;52.420;20.728;2023-03-23T11:25:22;17.60;67.50
17984;DHT22;9117;52.420;20.728;2023-03-23T11:27:50;17.60;64.30
17984;DHT22;9117;52.420;20.728;2023-03-23T11:30:24;17.60;64.60
17984;DHT22;9117;52.420;20.728;2023-03-23T11:32:53;17.80;68.90
17984;DHT22;9117;52.420;20.728;2023-03-23T11:35:23;18.00;64.80
17984;DHT22;9117;52.420;20.728;2023-03-23T11:37:54;17.90;64.20
17984;DHT22;9117;52.420;20.728;2023-03-23T11:40:24;18.20;64.50
17984;DHT22;9117;52.420;20.728;2023-03-23T11:42:58;18.30;64.30
17984;DHT22;9117;52.420;20.728;2023-03-23T11:45:32;18.60;63.60
17984;DHT22;9117;52.420;20.728;2023-03-23T11:48:09;18.50;60.00
17984;DHT22;9117;52.420;20.728;2023-03-23T11:50:47;18.50;56.30
17984;DHT22;9117;52.420;20.728;2023-03-23T11:53:25;18.70;58.60
17984;DHT22;9117;52.420;20.728;2023-03-23T11:56:01;19.00;56.90
17984;DHT22;9117;52.420;20.728;2023-03-23T11:58:32;18.50;56.20
17984;DHT22;9117;52.420;20.728;2023-03-23T12:01:05;18.80;55.30
17984;DHT22;9117;52.420;20.728;2023-03-23T12:04:03;18.70;55.30
17984;DHT22;9117;52.420;20.728;2023-03-23T12:06:38;18.50;55.50
17984;DHT22;9117;52.420;20.728;2023-03-23T12:09:20;18.80;52.80
17984;DHT22;9117;52.420;20.728;2023-03-23T12:11:59;18.90;55.50
17984;DHT22;9117;52.420;20.728;2023-03-23T12:14:38;19.10;53.60
17984;DHT22;9117;52.420;20.728;2023-03-23T12:17:16;19.30;53.80
17984;DHT22;9117;52.420;20.728;2023-03-23T12:20:05;19.40;52.20
17984;DHT22;9117;52.420;20.728;2023-03-23T12:22:44;19.30;52.20
17984;DHT22;9117;52.420;20.728;2023-03-23T12:25:31;19.30;56.30
17984;DHT22;9117;52.420;20.728;2023-03-23T12:28:05;19.40;54.60
17984;DHT22;9117;52.420;20.728;2023-03-23T12:30:38;19.20;55.70
17984;DHT22;9117;52.420;20.728;2023-03-23T12:33:17;19.70;56.70
17984;DHT22;9117;52.420;20.728;2023-03-23T12:35:57;19.60;54.90
17984;DHT22;9117;52.420;20.728;2023-03-23T12:38:40;19.60;56.60
17984;DHT22;9117;52.420;20.728;2023-03-23T12:41:16;19.20;55.70
17984;DHT22;9117;52.420;20.728;2023-03-23T12:43:50;18.90;54.80
17984;DHT22;9117;52.420;20.728;2023-03-23T12:46:53;18.80;55.60
17984;DHT22;9117;52.420;20.728;2023-03-23T12:49:26;18.70;54.30
17984;DHT22;9117;52.420;20.728;2023-03-23T12:51:59;18.70;59.30
17984;DHT22;9117;52.420;20.728;2023-03-23T12:54:31;18.70;61.80
17984;DHT22;9117;52.420;20.728;2023-03-23T12:57:04;18.70;57.80
17984;DHT22;9117;52.420;20.728;2023-03-23T12:59:39;18.70;55.00
17984;DHT22;9117;52.420;20.728;2023-03-23T13:02:15;18.80;56.00
17984;DHT22;9117;52.420;20.728;2023-03-23T13:04:46;18.80;53.10
17984;DHT22;9117;52.420;20.728;2023-03-23T13:07:19;18.70;52.60
17984;DHT22;9117;52.420;20.728;2023-03-23T13:09:52;18.80;54.60
17984;DHT22;9117;52.420;20.728;2023-03-23T13:12:22;18.70;60.20
17984;DHT22;9117;52.420;20.728;2023-03-23T13:14:58;18.60;59.80
17984;DHT22;9117;52.420;20.728;2023-03-23T13:17:36;18.50;55.30
17984;DHT22;9117;52.420;20.728;2023-03-23T13:20:20;18.50;57.00
17984;DHT22;9117;52.420;20.728;2023-03-23T13:22:53;18.40;56.90
17984;DHT22;9117;52.420;20.728;2023-03-23T13:25:35;18.30;58.40
17984;DHT22;9117;52.420;20.728;2023-03-23T13:28:14;18.30;58.30
17984;DHT22;9117;52.420;20.728;2023-03-23T13:30:53;18.30;59.40
17984;DHT22;9117;52.420;20.728;2023-03-23T13:33:21;18.20;59.30
17984;DHT22;9117;52.420;20.728;2023-03-23T13:35:49;18.20;59.60
17984;DHT22;9117;52.420;20.728;2023-03-23T13:38:23;18.20;59.60
17984;DHT22;9117;52.420;20.728;2023-03-23T13:40:51;18.10;58.70
17984;DHT22;9117;52.420;20.728;2023-03-23T13:43:29;18.00;65.80
17984;DHT22;9117;52.420;20.728;2023-03-23T13:46:10;18.00;61.30
17984;DHT22;9117;52.420;20.728;2023-03-23T13:48:43;17.80;59.80
17984;DHT22;9117;52.420;20.728;2023-03-23T13:51:26;17.70;65.80
17984;DHT22;9117;52.420;20.728;2023-03-23T13:54:20;17.60;60.00
17984;DHT22;9117;52.420;20.728;2023-03-23T13:56:54;17.50;61.10
17984;DHT22;9117;52.420;20.728;2023-03-23T13:59:32;17.40;62.20
17984;DHT22;9117;52.420;20.728;2023-03-23T14:02:30;17.40;61.30
17984;DHT22;9117;52.420;20.728;2023-03-23T14:05:09;17.20;59.80
17984;DHT22;9117;52.420;20.728;2023-03-23T14:07:55;17.20;61.10
17984;DHT22;9117;52.420;20.728;2023-03-23T14:10:31;17.10;64.30
17984;DHT22;9117;52.420;20.728;2023-03-23T14:12:59;17.00;67.70
17984;DHT22;9117;52.420;20.728;2023-03-23T14:15:30;17.00;60.50
17984;DHT22;9117;52.420;20.728;2023-03-23T14:18:02;16.90;63.70
17984;DHT22;9117;52.420;20.728;2023-03-23T14:20:32;16.90;64.20
17984;DHT22;9117;52.420;20.728;2023-03-23T14:23:00;16.80;65.00
17984;DHT22;9117;52.420;20.728;2023-03-23T14:25:29;16.80;66.70
17984;DHT22;9117;52.420;20.728;2023-03-23T14:27:58;16.70;64.40
17984;DHT22;9117;52.420;20.728;2023-03-23T14:30:27;16.70;73.00
17984;DHT22;9117;52.420;20.728;2023-03-23T14:33:06;16.70;73.00
17984;DHT22;9117;52.420;20.728;2023-03-23T14:35:36;16.60;68.90
17984;DHT22;9117;52.420;20.728;2023-03-23T14:38:04;16.60;71.40
17984;DHT22;9117;52.420;20.728;2023-03-23T14:40:34;16.50;67.70
17984;DHT22;9117;52.420;20.728;2023-03-23T14:43:01;16.50;68.60
17984;DHT22;9117;52.420;20.728;2023-03-23T14:45:28;16.40;68.80
17984;DHT22;9117;52.420;20.728;2023-03-23T14:47:58;16.40;69.60
17984;DHT22;9117;52.420;20.728;2023-03-23T14:50:28;16.40;68.50
17984;DHT22;9117;52.420;20.728;2023-03-23T14:53:02;16.40;68.30
17984;DHT22;9117;52.420;20.728;2023-03-23T14:55:31;16.40;69.30
17984;DHT22;9117;52.420;20.728;2023-03-23T14:58:06;16.30;72.80
17984;DHT22;9117;52.420;20.728;2023-03-23T15:00:39;16.30;75.60
17984;DHT22;9117;52.420;20.728;2023-03-23T15:03:12;16.30;74.40
17984;DHT22;9117;52.420;20.728;2023-03-23T15:05:43;16.20;71.90
17984;DHT22;9117;52.420;20.728;2023-03-23T15:08:14;16.20;68.00
17984;DHT22;9117;52.420;20.728;2023-03-23T15:10:42;16.10;67.60
17984;DHT22;9117;52.420;20.728;2023-03-23T15:13:17;16.10;66.40
17984;DHT22;9117;52.420;20.728;2023-03-23T15:15:44;16.10;68.10
17984;DHT22;9117;52.420;20.728;2023-03-23T15:18:29;16.00;66.50
17984;DHT22;9117;52.420;20.728;2023-03-23T15:20:56;15.90;65.80
17984;DHT22;9117;52.420;20.728;2023-03-23T15:23:27;15.90;70.00
17984;DHT22;9117;52.420;20.728;2023-03-23T15:25:56;15.80;66.50
17984;DHT22;9117;52.420;20.728;2023-03-23T15:28:29;15.70;68.60
17984;DHT22;9117;52.420;20.728;2023-03-23T15:31:01;15.70;67.60
17984;DHT22;9117;52.420;20.728;2023-03-23T15:33:35;15.60;73.70
17984;DHT22;9117;52.420;20.728;2023-03-23T15:36:07;15.60;77.40
17984;DHT22;9117;52.420;20.728;2023-03-23T15:38:35;15.60;75.20
17984;DHT22;9117;52.420;20.728;2023-03-23T15:41:04;15.50;73.50
17984;DHT22;9117;52.420;20.728;2023-03-23T15:43:33;15.60;67.90
17984;DHT22;9117;52.420;20.728;2023-03-23T15:46:03;15.60;69.60
17984;DHT22;9117;52.420;20.728;2023-03-23T15:48:32;15.50;71.60
17984;DHT22;9117;52.420;20.728;2023-03-23T15:51:04;15.50;72.40
17984;DHT22;9117;52.420;20.728;2023-03-23T15:53:33;15.40;69.50
17984;DHT22;9117;52.420;20.728;2023-03-23T15:56:04;15.40;71.90
17984;DHT22;9117;52.420;20.728;2023-03-23T15:58:32;15.30;77.40
17984;DHT22;9117;52.420;20.728;2023-03-23T16:01:04;15.20;80.30
17984;DHT22;9117;52.420;20.728;2023-03-23T16:03:37;15.10;80.50
17984;DHT22;9117;52.420;20.728;2023-03-23T16:06:10;14.90;79.50
17984;DHT22;9117;52.420;20.728;2023-03-23T16:08:51;14.80;78.40
17984;DHT22;9117;52.420;20.728;2023-03-23T16:11:22;14.70;76.20
17984;DHT22;9117;52.420;20.728;2023-03-23T16:13:50;14.30;80.20
17984;DHT22;9117;52.420;20.728;2023-03-23T16:16:22;14.40;79.30
17984;DHT22;9117;52.420;20.728;2023-03-23T16:18:50;14.30;70.70